SPW weather

Spencer Municipal Airport
Spencer, Iowa, United States

Public forecast

Using degrees Fahrenheit for public forecast. Weather courtesy of forecast.io.

METAR (pilot weather report)

Retrieved 2019/08/26 07:53 UTC (12 minutes ago):

KSPW 260753Z AUTO 15006KT 6SM BR OVC008 18/17 A2983 RMK AO2 CIG 005V011 SLP096 T01830167

TAF (pilot weather forecast)

Closest forecast is Fort Dodge Regional Airport, 57.8 nm (107.0 km) SE. Retrieved 2019/08/26 06:42 UTC (1 hour ago):

TAF KFOD 260539Z 2606/2706 13005KT P6SM SCT008 OVC015 FM260800 14008KT 5SM BR SCT003 OVC007 FM261500 17008KT P6SM VCSH OVC015 FM262200 25011KT P6SM SCT025 BKN050 FM270000 30011KT P6SM SCT250